sensor_id;sensor_type;location;lat;lon;timestamp;temperature;humidity
3275;DHT22;1649;53.672;10.064;2022-12-24T00:00:00;4.80;99.90
3275;DHT22;1649;53.672;10.064;2022-12-24T00:02:26;4.80;99.90
3275;DHT22;1649;53.672;10.064;2022-12-24T00:04:51;4.80;99.90
3275;DHT22;1649;53.672;10.064;2022-12-24T00:07:17;4.80;99.90
3275;DHT22;1649;53.672;10.064;2022-12-24T00:09:42;4.80;99.90
3275;DHT22;1649;53.672;10.064;2022-12-24T00:12:08;4.80;99.90
3275;DHT22;1649;53.672;10.064;2022-12-24T00:14:33;4.80;99.90
3275;DHT22;1649;53.672;10.064;2022-12-24T00:16:59;4.80;99.90
3275;DHT22;1649;53.672;10.064;2022-12-24T00:19:24;4.70;99.90
3275;DHT22;1649;53.672;10.064;2022-12-24T00:21:50;4.80;99.90
3275;DHT22;1649;53.672;10.064;2022-12-24T00:24:15;4.80;99.90
3275;DHT22;1649;53.672;10.064;2022-12-24T00:26:41;4.70;99.90
3275;DHT22;1649;53.672;10.064;2022-12-24T00:29:07;4.70;99.90
3275;DHT22;1649;53.672;10.064;2022-12-24T00:31:33;4.70;99.90
3275;DHT22;1649;53.672;10.064;2022-12-24T00:33:58;4.70;99.90
3275;DHT22;1649;53.672;10.064;2022-12-24T00:36:24;4.70;99.90
3275;DHT22;1649;53.672;10.064;2022-12-24T00:38:49;4.70;99.90
3275;DHT22;1649;53.672;10.064;2022-12-24T00:41:15;4.80;99.90
3275;DHT22;1649;53.672;10.064;2022-12-24T00:44:09;4.70;99.90
3275;DHT22;1649;53.672;10.064;2022-12-24T00:46:37;4.70;99.90
3275;DHT22;1649;53.672;10.064;2022-12-24T00:49:03;4.70;99.90
3275;DHT22;1649;53.672;10.064;2022-12-24T00:51:29;4.80;99.90
3275;DHT22;1649;53.672;10.064;2022-12-24T00:53:55;4.70;99.90
3275;DHT22;1649;53.672;10.064;2022-12-24T00:56:21;4.70;99.90
3275;DHT22;1649;53.672;10.064;2022-12-24T00:58:47;4.70;99.90
3275;DHT22;1649;53.672;10.064;2022-12-24T01:01:13;4.70;99.90
3275;DHT22;1649;53.672;10.064;2022-12-24T01:03:39;4.70;99.90
3275;DHT22;1649;53.672;10.064;2022-12-24T01:06:08;4.70;99.90
3275;DHT22;1649;53.672;10.064;2022-12-24T01:08:34;4.80;99.90
3275;DHT22;1649;53.672;10.064;2022-12-24T01:11:01;4.70;99.90
3275;DHT22;1649;53.672;10.064;2022-12-24T01:13:26;4.80;99.90
3275;DHT22;1649;53.672;10.064;2022-12-24T01:15:52;4.80;99.90
3275;DHT22;1649;53.672;10.064;2022-12-24T01:18:17;4.80;99.90
3275;DHT22;1649;53.672;10.064;2022-12-24T01:20:43;4.80;99.90
3275;DHT22;1649;53.672;10.064;2022-12-24T01:23:08;4.80;99.90
3275;DHT22;1649;53.672;10.064;2022-12-24T01:25:36;4.70;99.90
3275;DHT22;1649;53.672;10.064;2022-12-24T01:28:02;4.70;99.90
3275;DHT22;1649;53.672;10.064;2022-12-24T01:30:28;4.70;99.90
3275;DHT22;1649;53.672;10.064;2022-12-24T01:32:53;4.80;99.90
3275;DHT22;1649;53.672;10.064;2022-12-24T01:35:19;4.80;99.90
3275;DHT22;1649;53.672;10.064;2022-12-24T01:37:44;4.80;99.90
3275;DHT22;1649;53.672;10.064;2022-12-24T01:40:14;4.70;99.90
3275;DHT22;1649;53.672;10.064;2022-12-24T01:42:59;4.70;99.90
3275;DHT22;1649;53.672;10.064;2022-12-24T01:46:00;4.70;99.90
3275;DHT22;1649;53.672;10.064;2022-12-24T01:54:28;4.70;99.90
3275;DHT22;1649;53.672;10.064;2022-12-24T01:57:02;4.60;99.90
3275;DHT22;1649;53.672;10.064;2022-12-24T01:59:29;4.60;99.90
3275;DHT22;1649;53.672;10.064;2022-12-24T02:01:54;4.60;99.90
3275;DHT22;1649;53.672;10.064;2022-12-24T02:04:25;4.60;99.90
3275;DHT22;1649;53.672;10.064;2022-12-24T02:06:53;4.60;99.90
3275;DHT22;1649;53.672;10.064;2022-12-24T02:09:19;4.60;99.90
3275;DHT22;1649;53.672;10.064;2022-12-24T02:11:45;4.60;99.90
3275;DHT22;1649;53.672;10.064;2022-12-24T02:14:11;4.60;99.90
3275;DHT22;1649;53.672;10.064;2022-12-24T02:17:03;4.60;99.90
3275;DHT22;1649;53.672;10.064;2022-12-24T02:30:32;4.70;99.90
3275;DHT22;1649;53.672;10.064;2022-12-24T02:38:49;4.70;99.90
3275;DHT22;1649;53.672;10.064;2022-12-24T02:41:22;4.60;99.90
3275;DHT22;1649;53.672;10.064;2022-12-24T02:43:50;4.60;99.90
3275;DHT22;1649;53.672;10.064;2022-12-24T02:46:21;4.60;99.90
3275;DHT22;1649;53.672;10.064;2022-12-24T02:48:48;4.70;99.90
3275;DHT22;1649;53.672;10.064;2022-12-24T02:51:15;4.80;99.90
3275;DHT22;1649;53.672;10.064;2022-12-24T02:53:41;4.70;99.90
3275;DHT22;1649;53.672;10.064;2022-12-24T03:01:45;4.70;99.90
3275;DHT22;1649;53.672;10.064;2022-12-24T03:07:14;4.70;99.90
3275;DHT22;1649;53.672;10.064;2022-12-24T03:09:52;4.70;99.90
3275;DHT22;1649;53.672;10.064;2022-12-24T03:12:25;4.80;99.90
3275;DHT22;1649;53.672;10.064;2022-12-24T03:14:52;4.80;99.90
3275;DHT22;1649;53.672;10.064;2022-12-24T03:17:19;4.80;99.90
3275;DHT22;1649;53.672;10.064;2022-12-24T03:19:45;4.70;99.90
3275;DHT22;1649;53.672;10.064;2022-12-24T03:22:12;4.70;99.90
3275;DHT22;1649;53.672;10.064;2022-12-24T03:24:38;4.70;99.90
3275;DHT22;1649;53.672;10.064;2022-12-24T03:27:05;4.70;99.90
3275;DHT22;1649;53.672;10.064;2022-12-24T03:29:32;4.70;99.90
3275;DHT22;1649;53.672;10.064;2022-12-24T03:32:00;4.70;99.90
3275;DHT22;1649;53.672;10.064;2022-12-24T03:34:26;4.80;99.90
3275;DHT22;1649;53.672;10.064;2022-12-24T03:36:52;4.80;99.90
3275;DHT22;1649;53.672;10.064;2022-12-24T03:39:17;4.70;99.90
3275;DHT22;1649;53.672;10.064;2022-12-24T03:41:43;4.80;99.90
3275;DHT22;1649;53.672;10.064;2022-12-24T03:44:08;4.80;99.90
3275;DHT22;1649;53.672;10.064;2022-12-24T03:46:34;4.70;99.90
3275;DHT22;1649;53.672;10.064;2022-12-24T03:48:59;4.70;99.90
3275;DHT22;1649;53.672;10.064;2022-12-24T03:51:25;4.80;99.90
3275;DHT22;1649;53.672;10.064;2022-12-24T03:53:52;4.90;99.90
3275;DHT22;1649;53.672;10.064;2022-12-24T03:56:18;4.90;99.90
3275;DHT22;1649;53.672;10.064;2022-12-24T03:58:44;4.90;99.90
3275;DHT22;1649;53.672;10.064;2022-12-24T04:01:10;4.80;99.90
3275;DHT22;1649;53.672;10.064;2022-12-24T04:03:35;4.90;99.90
3275;DHT22;1649;53.672;10.064;2022-12-24T04:06:05;4.80;99.90
3275;DHT22;1649;53.672;10.064;2022-12-24T04:08:31;4.80;99.90
3275;DHT22;1649;53.672;10.064;2022-12-24T04:10:57;4.80;99.90
3275;DHT22;1649;53.672;10.064;2022-12-24T04:13:22;4.90;99.90
3275;DHT22;1649;53.672;10.064;2022-12-24T04:15:59;4.90;99.90
3275;DHT22;1649;53.672;10.064;2022-12-24T04:18:25;4.90;99.90
3275;DHT22;1649;53.672;10.064;2022-12-24T04:20:51;4.90;99.90
3275;DHT22;1649;53.672;10.064;2022-12-24T04:23:16;4.90;99.90
3275;DHT22;1649;53.672;10.064;2022-12-24T04:25:42;4.90;99.90
3275;DHT22;1649;53.672;10.064;2022-12-24T04:28:07;4.90;99.90
3275;DHT22;1649;53.672;10.064;2022-12-24T04:30:33;4.90;99.90
3275;DHT22;1649;53.672;10.064;2022-12-24T04:32:58;4.90;99.90
3275;DHT22;1649;53.672;10.064;2022-12-24T04:35:24;4.90;99.90
3275;DHT22;1649;53.672;10.064;2022-12-24T04:37:49;4.90;99.90
3275;DHT22;1649;53.672;10.064;2022-12-24T04:40:15;5.00;99.90
3275;DHT22;1649;53.672;10.064;2022-12-24T04:42:40;5.00;99.90
3275;DHT22;1649;53.672;10.064;2022-12-24T04:45:06;5.00;99.90
3275;DHT22;1649;53.672;10.064;2022-12-24T04:47:32;4.90;99.90
3275;DHT22;1649;53.672;10.064;2022-12-24T04:49:58;4.90;99.90
3275;DHT22;1649;53.672;10.064;2022-12-24T04:52:25;4.90;99.90
3275;DHT22;1649;53.672;10.064;2022-12-24T04:54:51;4.90;99.90
3275;DHT22;1649;53.672;10.064;2022-12-24T04:57:16;4.90;99.90
3275;DHT22;1649;53.672;10.064;2022-12-24T04:59:42;4.90;99.90
3275;DHT22;1649;53.672;10.064;2022-12-24T05:02:07;5.00;99.90
3275;DHT22;1649;53.672;10.064;2022-12-24T05:04:33;4.90;99.90
3275;DHT22;1649;53.672;10.064;2022-12-24T05:06:58;4.90;99.90
3275;DHT22;1649;53.672;10.064;2022-12-24T05:09:24;4.90;99.90
3275;DHT22;1649;53.672;10.064;2022-12-24T05:11:49;4.90;99.90
3275;DHT22;1649;53.672;10.064;2022-12-24T05:14:15;5.00;99.90
3275;DHT22;1649;53.672;10.064;2022-12-24T05:16:40;4.90;99.90
3275;DHT22;1649;53.672;10.064;2022-12-24T05:19:06;4.90;99.90
3275;DHT22;1649;53.672;10.064;2022-12-24T05:21:31;4.90;99.90
3275;DHT22;1649;53.672;10.064;2022-12-24T05:23:57;4.90;99.90
3275;DHT22;1649;53.672;10.064;2022-12-24T05:26:51;5.00;99.90
3275;DHT22;1649;53.672;10.064;2022-12-24T05:29:17;4.90;99.90
3275;DHT22;1649;53.672;10.064;2022-12-24T05:31:44;4.90;99.90
3275;DHT22;1649;53.672;10.064;2022-12-24T05:34:11;4.90;99.90
3275;DHT22;1649;53.672;10.064;2022-12-24T05:36:37;4.90;99.90
3275;DHT22;1649;53.672;10.064;2022-12-24T05:39:03;4.90;99.90
3275;DHT22;1649;53.672;10.064;2022-12-24T05:41:28;4.90;99.90
3275;DHT22;1649;53.672;10.064;2022-12-24T05:43:54;4.90;99.90
3275;DHT22;1649;53.672;10.064;2022-12-24T05:46:21;4.90;99.90
3275;DHT22;1649;53.672;10.064;2022-12-24T05:48:48;4.90;99.90
3275;DHT22;1649;53.672;10.064;2022-12-24T05:51:15;4.90;99.90
3275;DHT22;1649;53.672;10.064;2022-12-24T05:53:44;5.00;99.90
3275;DHT22;1649;53.672;10.064;2022-12-24T05:56:12;5.00;99.90
3275;DHT22;1649;53.672;10.064;2022-12-24T05:58:39;5.00;99.90
3275;DHT22;1649;53.672;10.064;2022-12-24T06:01:06;5.00;99.90
3275;DHT22;1649;53.672;10.064;2022-12-24T06:03:32;4.90;99.90
3275;DHT22;1649;53.672;10.064;2022-12-24T06:08:27;4.90;99.90
3275;DHT22;1649;53.672;10.064;2022-12-24T06:10:58;4.90;99.90
3275;DHT22;1649;53.672;10.064;2022-12-24T06:13:25;4.80;99.90
3275;DHT22;1649;53.672;10.064;2022-12-24T06:15:54;4.80;99.90
3275;DHT22;1649;53.672;10.064;2022-12-24T06:18:20;4.80;99.90
3275;DHT22;1649;53.672;10.064;2022-12-24T06:20:52;4.80;99.90
3275;DHT22;1649;53.672;10.064;2022-12-24T06:23:18;4.80;99.90
3275;DHT22;1649;53.672;10.064;2022-12-24T06:25:45;4.80;99.90
3275;DHT22;1649;53.672;10.064;2022-12-24T06:28:10;4.90;99.90
3275;DHT22;1649;53.672;10.064;2022-12-24T06:30:36;4.90;99.90
3275;DHT22;1649;53.672;10.064;2022-12-24T06:33:01;4.80;99.90
3275;DHT22;1649;53.672;10.064;2022-12-24T06:35:27;4.80;99.90
3275;DHT22;1649;53.672;10.064;2022-12-24T06:37:52;4.80;99.90
3275;DHT22;1649;53.672;10.064;2022-12-24T06:40:18;4.80;99.90
3275;DHT22;1649;53.672;10.064;2022-12-24T06:42:43;4.80;99.90
3275;DHT22;1649;53.672;10.064;2022-12-24T06:45:09;4.80;99.90
3275;DHT22;1649;53.672;10.064;2022-12-24T06:47:34;4.80;99.90
3275;DHT22;1649;53.672;10.064;2022-12-24T06:50:00;4.80;99.90
3275;DHT22;1649;53.672;10.064;2022-12-24T06:52:25;4.90;99.90
3275;DHT22;1649;53.672;10.064;2022-12-24T06:54:51;4.80;99.90
3275;DHT22;1649;53.672;10.064;2022-12-24T06:57:16;4.80;99.90
3275;DHT22;1649;53.672;10.064;2022-12-24T06:59:42;4.90;99.90
3275;DHT22;1649;53.672;10.064;2022-12-24T07:02:08;4.90;99.90
3275;DHT22;1649;53.672;10.064;2022-12-24T07:04:34;4.90;99.90
3275;DHT22;1649;53.672;10.064;2022-12-24T07:06:59;4.90;99.90
3275;DHT22;1649;53.672;10.064;2022-12-24T07:09:25;4.90;99.90
3275;DHT22;1649;53.672;10.064;2022-12-24T07:11:50;4.90;99.90
3275;DHT22;1649;53.672;10.064;2022-12-24T07:14:16;4.90;99.90
3275;DHT22;1649;53.672;10.064;2022-12-24T07:16:41;4.90;99.90
3275;DHT22;1649;53.672;10.064;2022-12-24T07:19:07;4.80;99.90
3275;DHT22;1649;53.672;10.064;2022-12-24T07:21:32;4.80;99.90
3275;DHT22;1649;53.672;10.064;2022-12-24T07:23:58;4.80;99.90
3275;DHT22;1649;53.672;10.064;2022-12-24T07:26:23;4.80;99.90
3275;DHT22;1649;53.672;10.064;2022-12-24T07:28:49;4.80;99.90
3275;DHT22;1649;53.672;10.064;2022-12-24T07:31:14;4.80;99.90
3275;DHT22;1649;53.672;10.064;2022-12-24T07:33:40;4.70;99.90
3275;DHT22;1649;53.672;10.064;2022-12-24T07:36:15;4.80;99.90
3275;DHT22;1649;53.672;10.064;2022-12-24T07:38:41;4.80;99.90
3275;DHT22;1649;53.672;10.064;2022-12-24T07:41:07;4.80;99.90
3275;DHT22;1649;53.672;10.064;2022-12-24T07:43:33;4.80;99.90
3275;DHT22;1649;53.672;10.064;2022-12-24T07:45:58;4.80;99.90
3275;DHT22;1649;53.672;10.064;2022-12-24T07:48:25;4.90;99.90
3275;DHT22;1649;53.672;10.064;2022-12-24T07:50:51;4.90;99.90
3275;DHT22;1649;53.672;10.064;2022-12-24T07:53:17;4.90;99.90
3275;DHT22;1649;53.672;10.064;2022-12-24T07:55:43;4.80;99.90
3275;DHT22;1649;53.672;10.064;2022-12-24T07:58:09;4.90;99.90
3275;DHT22;1649;53.672;10.064;2022-12-24T08:00:35;4.90;99.90
3275;DHT22;1649;53.672;10.064;2022-12-24T08:03:00;4.90;99.90
3275;DHT22;1649;53.672;10.064;2022-12-24T08:05:26;4.90;99.90
3275;DHT22;1649;53.672;10.064;2022-12-24T08:07:53;4.90;99.90
3275;DHT22;1649;53.672;10.064;2022-12-24T08:10:18;4.90;99.90
3275;DHT22;1649;53.672;10.064;2022-12-24T08:12:44;5.00;99.90
3275;DHT22;1649;53.672;10.064;2022-12-24T08:15:10;4.90;99.90
3275;DHT22;1649;53.672;10.064;2022-12-24T08:17:36;4.90;99.90
3275;DHT22;1649;53.672;10.064;2022-12-24T08:20:02;4.80;99.90
3275;DHT22;1649;53.672;10.064;2022-12-24T08:22:28;4.80;99.90
3275;DHT22;1649;53.672;10.064;2022-12-24T08:24:53;4.80;99.90
3275;DHT22;1649;53.672;10.064;2022-12-24T08:27:19;4.80;99.90
3275;DHT22;1649;53.672;10.064;2022-12-24T08:29:44;4.80;99.90
3275;DHT22;1649;53.672;10.064;2022-12-24T08:32:10;4.80;99.90
3275;DHT22;1649;53.672;10.064;2022-12-24T08:34:35;4.80;99.90
3275;DHT22;1649;53.672;10.064;2022-12-24T08:37:01;5.00;99.90
3275;DHT22;1649;53.672;10.064;2022-12-24T08:39:26;4.90;99.90
3275;DHT22;1649;53.672;10.064;2022-12-24T08:41:52;4.90;99.90
3275;DHT22;1649;53.672;10.064;2022-12-24T08:44:17;4.90;99.90
3275;DHT22;1649;53.672;10.064;2022-12-24T08:46:43;4.90;99.90
3275;DHT22;1649;53.672;10.064;2022-12-24T08:49:09;4.90;99.90
3275;DHT22;1649;53.672;10.064;2022-12-24T08:51:34;4.90;99.90
3275;DHT22;1649;53.672;10.064;2022-12-24T08:54:00;5.00;99.90
3275;DHT22;1649;53.672;10.064;2022-12-24T08:56:25;4.90;99.90
3275;DHT22;1649;53.672;10.064;2022-12-24T08:58:51;4.90;99.90
3275;DHT22;1649;53.672;10.064;2022-12-24T09:01:18;4.90;99.90
3275;DHT22;1649;53.672;10.064;2022-12-24T09:03:44;4.90;99.90
3275;DHT22;1649;53.672;10.064;2022-12-24T09:06:10;4.90;99.90
3275;DHT22;1649;53.672;10.064;2022-12-24T09:08:37;4.90;99.90
3275;DHT22;1649;53.672;10.064;2022-12-24T09:11:08;5.00;99.90
3275;DHT22;1649;53.672;10.064;2022-12-24T09:13:34;5.00;99.90
3275;DHT22;1649;53.672;10.064;2022-12-24T09:16:00;5.00;99.90
3275;DHT22;1649;53.672;10.064;2022-12-24T09:18:26;5.00;99.90
3275;DHT22;1649;53.672;10.064;2022-12-24T09:21:01;5.10;99.90
3275;DHT22;1649;53.672;10.064;2022-12-24T09:23:27;5.10;99.90
3275;DHT22;1649;53.672;10.064;2022-12-24T09:25:53;5.10;99.90
3275;DHT22;1649;53.672;10.064;2022-12-24T09:28:19;5.10;99.90
3275;DHT22;1649;53.672;10.064;2022-12-24T09:30:44;5.10;99.90
3275;DHT22;1649;53.672;10.064;2022-12-24T09:33:10;5.10;99.90
3275;DHT22;1649;53.672;10.064;2022-12-24T09:35:37;5.00;99.90
3275;DHT22;1649;53.672;10.064;2022-12-24T09:38:02;5.00;99.90
3275;DHT22;1649;53.672;10.064;2022-12-24T09:40:37;5.10;99.90
3275;DHT22;1649;53.672;10.064;2022-12-24T09:43:13;5.00;99.90
3275;DHT22;1649;53.672;10.064;2022-12-24T09:45:45;5.00;99.90
3275;DHT22;1649;53.672;10.064;2022-12-24T09:48:16;5.10;99.90
3275;DHT22;1649;53.672;10.064;2022-12-24T09:53:19;5.20;99.90
3275;DHT22;1649;53.672;10.064;2022-12-24T09:55:59;5.20;99.90
3275;DHT22;1649;53.672;10.064;2022-12-24T09:58:34;5.20;99.90
3275;DHT22;1649;53.672;10.064;2022-12-24T10:01:01;5.10;99.90
3275;DHT22;1649;53.672;10.064;2022-12-24T10:03:26;5.10;99.90
3275;DHT22;1649;53.672;10.064;2022-12-24T10:06:13;5.20;99.90
3275;DHT22;1649;53.672;10.064;2022-12-24T10:08:45;5.10;99.90
3275;DHT22;1649;53.672;10.064;2022-12-24T10:14:47;5.20;99.90
3275;DHT22;1649;53.672;10.064;2022-12-24T10:17:20;5.20;99.90
3275;DHT22;1649;53.672;10.064;2022-12-24T10:20:26;5.20;99.90
3275;DHT22;1649;53.672;10.064;2022-12-24T10:29:00;5.30;99.90
3275;DHT22;1649;53.672;10.064;2022-12-24T10:31:30;5.30;99.90
3275;DHT22;1649;53.672;10.064;2022-12-24T10:34:04;5.30;99.90
3275;DHT22;1649;53.672;10.064;2022-12-24T10:36:35;5.40;99.90
3275;DHT22;1649;53.672;10.064;2022-12-24T10:39:00;5.40;99.90
3275;DHT22;1649;53.672;10.064;2022-12-24T10:41:27;5.50;99.90
3275;DHT22;1649;53.672;10.064;2022-12-24T10:43:54;5.50;99.90
3275;DHT22;1649;53.672;10.064;2022-12-24T10:46:22;5.50;99.90
3275;DHT22;1649;53.672;10.064;2022-12-24T10:49:11;5.50;99.90
3275;DHT22;1649;53.672;10.064;2022-12-24T10:52:04;5.40;99.90
3275;DHT22;1649;53.672;10.064;2022-12-24T10:54:30;5.40;99.90
3275;DHT22;1649;53.672;10.064;2022-12-24T10:57:04;5.40;99.90
3275;DHT22;1649;53.672;10.064;2022-12-24T10:59:42;5.50;99.90
3275;DHT22;1649;53.672;10.064;2022-12-24T11:05:02;5.50;99.90
3275;DHT22;1649;53.672;10.064;2022-12-24T11:07:29;5.60;99.90
3275;DHT22;1649;53.672;10.064;2022-12-24T11:10:03;5.50;99.90
3275;DHT22;1649;53.672;10.064;2022-12-24T11:12:36;5.60;99.90
3275;DHT22;1649;53.672;10.064;2022-12-24T11:15:17;5.60;99.90
3275;DHT22;1649;53.672;10.064;2022-12-24T11:18:05;5.60;99.90
3275;DHT22;1649;53.672;10.064;2022-12-24T11:20:37;5.70;99.90
3275;DHT22;1649;53.672;10.064;2022-12-24T11:23:03;5.70;99.90
3275;DHT22;1649;53.672;10.064;2022-12-24T11:25:33;5.70;99.90
3275;DHT22;1649;53.672;10.064;2022-12-24T11:31:17;5.80;99.90
3275;DHT22;1649;53.672;10.064;2022-12-24T11:33:48;5.90;99.90
3275;DHT22;1649;53.672;10.064;2022-12-24T11:36:16;5.90;99.90
3275;DHT22;1649;53.672;10.064;2022-12-24T11:38:54;5.90;99.90
3275;DHT22;1649;53.672;10.064;2022-12-24T11:41:21;5.90;99.90
3275;DHT22;1649;53.672;10.064;2022-12-24T11:43:49;5.90;99.90
3275;DHT22;1649;53.672;10.064;2022-12-24T11:46:36;5.90;99.90
3275;DHT22;1649;53.672;10.064;2022-12-24T11:51:38;5.90;99.90
3275;DHT22;1649;53.672;10.064;2022-12-24T11:54:24;6.00;99.90
3275;DHT22;1649;53.672;10.064;2022-12-24T11:56:53;6.00;99.90
3275;DHT22;1649;53.672;10.064;2022-12-24T11:59:41;6.00;99.90
3275;DHT22;1649;53.672;10.064;2022-12-24T12:02:17;6.00;99.90
3275;DHT22;1649;53.672;10.064;2022-12-24T12:04:54;5.90;99.90
3275;DHT22;1649;53.672;10.064;2022-12-24T12:07:26;5.90;99.90
3275;DHT22;1649;53.672;10.064;2022-12-24T12:12:41;6.00;99.90
3275;DHT22;1649;53.672;10.064;2022-12-24T12:15:21;6.10;99.90
3275;DHT22;1649;53.672;10.064;2022-12-24T12:17:55;6.10;99.90
3275;DHT22;1649;53.672;10.064;2022-12-24T12:23:19;6.20;99.90
3275;DHT22;1649;53.672;10.064;2022-12-24T12:28:43;6.20;99.90
3275;DHT22;1649;53.672;10.064;2022-12-24T12:34:03;6.20;99.90
3275;DHT22;1649;53.672;10.064;2022-12-24T12:36:35;6.20;99.90
3275;DHT22;1649;53.672;10.064;2022-12-24T12:39:02;6.20;99.90
3275;DHT22;1649;53.672;10.064;2022-12-24T12:41:53;6.30;99.90
3275;DHT22;1649;53.672;10.064;2022-12-24T12:47:40;6.50;99.90
3275;DHT22;1649;53.672;10.064;2022-12-24T12:50:32;6.60;99.90
3275;DHT22;1649;53.672;10.064;2022-12-24T12:53:02;6.60;99.90
3275;DHT22;1649;53.672;10.064;2022-12-24T12:58:15;6.70;99.90
3275;DHT22;1649;53.672;10.064;2022-12-24T13:00:44;6.80;99.90
3275;DHT22;1649;53.672;10.064;2022-12-24T13:06:20;6.80;99.90
3275;DHT22;1649;53.672;10.064;2022-12-24T13:17:52;6.80;99.90
3275;DHT22;1649;53.672;10.064;2022-12-24T13:20:30;6.80;99.90
3275;DHT22;1649;53.672;10.064;2022-12-24T13:23:13;6.90;99.90
3275;DHT22;1649;53.672;10.064;2022-12-24T13:25:48;6.80;99.90
3275;DHT22;1649;53.672;10.064;2022-12-24T13:28:35;6.80;99.90
3275;DHT22;1649;53.672;10.064;2022-12-24T13:36:05;6.80;99.90
3275;DHT22;1649;53.672;10.064;2022-12-24T13:44:16;7.10;99.90
3275;DHT22;1649;53.672;10.064;2022-12-24T13:46:47;7.10;99.90
3275;DHT22;1649;53.672;10.064;2022-12-24T13:55:02;6.80;99.90
3275;DHT22;1649;53.672;10.064;2022-12-24T13:57:33;6.70;99.90
3275;DHT22;1649;53.672;10.064;2022-12-24T14:03:06;6.60;99.90
3275;DHT22;1649;53.672;10.064;2022-12-24T14:05:51;6.50;99.90
3275;DHT22;1649;53.672;10.064;2022-12-24T14:08:25;6.60;99.90
3275;DHT22;1649;53.672;10.064;2022-12-24T14:11:12;6.60;99.90
3275;DHT22;1649;53.672;10.064;2022-12-24T14:16:18;6.70;99.90
3275;DHT22;1649;53.672;10.064;2022-12-24T14:18:49;6.60;99.90
3275;DHT22;1649;53.672;10.064;2022-12-24T14:21:21;6.70;99.90
3275;DHT22;1649;53.672;10.064;2022-12-24T14:23:54;6.60;99.90
3275;DHT22;1649;53.672;10.064;2022-12-24T14:26:24;6.60;99.90
3275;DHT22;1649;53.672;10.064;2022-12-24T14:28:57;6.60;99.90
3275;DHT22;1649;53.672;10.064;2022-12-24T14:31:25;6.60;99.90
3275;DHT22;1649;53.672;10.064;2022-12-24T14:33:50;6.60;99.90
3275;DHT22;1649;53.672;10.064;2022-12-24T14:36:20;6.70;99.90
3275;DHT22;1649;53.672;10.064;2022-12-24T14:38:47;6.70;99.90
3275;DHT22;1649;53.672;10.064;2022-12-24T14:41:27;6.80;99.90
3275;DHT22;1649;53.672;10.064;2022-12-24T14:46:51;6.90;99.90
3275;DHT22;1649;53.672;10.064;2022-12-24T14:52:14;6.90;99.90
3275;DHT22;1649;53.672;10.064;2022-12-24T14:54:43;6.90;99.90
3275;DHT22;1649;53.672;10.064;2022-12-24T14:59:50;6.80;99.90
3275;DHT22;1649;53.672;10.064;2022-12-24T15:07:32;6.80;99.90
3275;DHT22;1649;53.672;10.064;2022-12-24T15:09:59;6.90;99.90
3275;DHT22;1649;53.672;10.064;2022-12-24T15:12:25;6.90;99.90
3275;DHT22;1649;53.672;10.064;2022-12-24T15:14:51;7.00;99.90
3275;DHT22;1649;53.672;10.064;2022-12-24T15:17:16;7.10;99.90
3275;DHT22;1649;53.672;10.064;2022-12-24T15:19:43;7.20;99.90
3275;DHT22;1649;53.672;10.064;2022-12-24T15:22:23;7.20;99.90
3275;DHT22;1649;53.672;10.064;2022-12-24T15:24:49;7.30;99.90
3275;DHT22;1649;53.672;10.064;2022-12-24T15:27:18;7.20;99.90
3275;DHT22;1649;53.672;10.064;2022-12-24T15:29:45;7.20;99.90
3275;DHT22;1649;53.672;10.064;2022-12-24T15:32:16;7.30;99.90
3275;DHT22;1649;53.672;10.064;2022-12-24T15:34:44;7.30;99.90
3275;DHT22;1649;53.672;10.064;2022-12-24T15:37:15;7.30;99.90
3275;DHT22;1649;53.672;10.064;2022-12-24T15:39:42;7.20;99.90
3275;DHT22;1649;53.672;10.064;2022-12-24T15:42:09;7.20;99.90
3275;DHT22;1649;53.672;10.064;2022-12-24T15:44:42;7.20;99.90
3275;DHT22;1649;53.672;10.064;2022-12-24T15:47:17;7.30;99.90
3275;DHT22;1649;53.672;10.064;2022-12-24T15:49:47;7.30;99.90
3275;DHT22;1649;53.672;10.064;2022-12-24T15:52:16;7.40;99.90
3275;DHT22;1649;53.672;10.064;2022-12-24T15:54:46;7.40;99.90
3275;DHT22;1649;53.672;10.064;2022-12-24T15:57:32;7.40;99.90
3275;DHT22;1649;53.672;10.064;2022-12-24T16:00:02;7.50;99.90
3275;DHT22;1649;53.672;10.064;2022-12-24T16:02:35;7.50;99.90
3275;DHT22;1649;53.672;10.064;2022-12-24T16:05:37;7.50;99.90
3275;DHT22;1649;53.672;10.064;2022-12-24T16:13:29;7.50;99.90
3275;DHT22;1649;53.672;10.064;2022-12-24T16:16:07;7.60;99.90
3275;DHT22;1649;53.672;10.064;2022-12-24T16:18:40;7.50;99.90
3275;DHT22;1649;53.672;10.064;2022-12-24T16:21:07;7.50;99.90
3275;DHT22;1649;53.672;10.064;2022-12-24T16:23:56;7.70;99.90
3275;DHT22;1649;53.672;10.064;2022-12-24T16:26:22;7.70;99.90
3275;DHT22;1649;53.672;10.064;2022-12-24T16:28:48;7.70;99.90
3275;DHT22;1649;53.672;10.064;2022-12-24T16:31:26;7.70;99.90
3275;DHT22;1649;53.672;10.064;2022-12-24T16:33:54;7.80;99.90
3275;DHT22;1649;53.672;10.064;2022-12-24T16:36:20;7.80;99.90
3275;DHT22;1649;53.672;10.064;2022-12-24T16:38:45;7.80;99.90
3275;DHT22;1649;53.672;10.064;2022-12-24T16:41:29;7.80;99.90
3275;DHT22;1649;53.672;10.064;2022-12-24T16:44:15;7.90;99.90
3275;DHT22;1649;53.672;10.064;2022-12-24T16:46:40;7.90;99.90
3275;DHT22;1649;53.672;10.064;2022-12-24T16:49:08;7.90;99.90
3275;DHT22;1649;53.672;10.064;2022-12-24T16:51:36;7.90;99.90
3275;DHT22;1649;53.672;10.064;2022-12-24T16:54:01;8.00;99.90
3275;DHT22;1649;53.672;10.064;2022-12-24T16:56:27;8.10;99.90
3275;DHT22;1649;53.672;10.064;2022-12-24T16:58:53;8.00;99.90
3275;DHT22;1649;53.672;10.064;2022-12-24T17:01:18;8.10;99.90
3275;DHT22;1649;53.672;10.064;2022-12-24T17:03:43;8.10;99.90
3275;DHT22;1649;53.672;10.064;2022-12-24T17:06:09;8.10;99.90
3275;DHT22;1649;53.672;10.064;2022-12-24T17:08:34;8.10;99.90
3275;DHT22;1649;53.672;10.064;2022-12-24T17:11:01;8.20;99.90
3275;DHT22;1649;53.672;10.064;2022-12-24T17:13:26;8.20;99.90
3275;DHT22;1649;53.672;10.064;2022-12-24T17:15:52;8.30;99.90
3275;DHT22;1649;53.672;10.064;2022-12-24T17:18:17;8.30;99.90
3275;DHT22;1649;53.672;10.064;2022-12-24T17:20:43;8.30;99.90
3275;DHT22;1649;53.672;10.064;2022-12-24T17:23:08;8.30;99.90
3275;DHT22;1649;53.672;10.064;2022-12-24T17:25:35;8.30;99.90
3275;DHT22;1649;53.672;10.064;2022-12-24T17:28:00;8.30;99.90
3275;DHT22;1649;53.672;10.064;2022-12-24T17:30:26;8.30;99.90
3275;DHT22;1649;53.672;10.064;2022-12-24T17:32:51;8.30;99.90
3275;DHT22;1649;53.672;10.064;2022-12-24T17:35:17;8.30;99.90
3275;DHT22;1649;53.672;10.064;2022-12-24T17:37:42;8.30;99.90
3275;DHT22;1649;53.672;10.064;2022-12-24T17:40:08;8.20;99.90
3275;DHT22;1649;53.672;10.064;2022-12-24T17:42:34;8.20;99.90
3275;DHT22;1649;53.672;10.064;2022-12-24T17:44:59;8.20;99.90
3275;DHT22;1649;53.672;10.064;2022-12-24T17:47:25;8.20;99.90
3275;DHT22;1649;53.672;10.064;2022-12-24T17:49:51;8.20;99.90
3275;DHT22;1649;53.672;10.064;2022-12-24T17:52:16;8.20;99.90
3275;DHT22;1649;53.672;10.064;2022-12-24T17:54:42;8.20;99.90
3275;DHT22;1649;53.672;10.064;2022-12-24T17:57:07;8.20;99.90
3275;DHT22;1649;53.672;10.064;2022-12-24T17:59:33;8.20;99.90
3275;DHT22;1649;53.672;10.064;2022-12-24T18:01:58;8.20;99.90
3275;DHT22;1649;53.672;10.064;2022-12-24T18:04:24;8.30;99.90
3275;DHT22;1649;53.672;10.064;2022-12-24T18:06:49;8.30;99.90
3275;DHT22;1649;53.672;10.064;2022-12-24T18:09:15;8.30;99.90
3275;DHT22;1649;53.672;10.064;2022-12-24T18:11:40;8.30;99.90
3275;DHT22;1649;53.672;10.064;2022-12-24T18:14:06;8.30;99.90
3275;DHT22;1649;53.672;10.064;2022-12-24T18:16:34;8.30;99.90